Etusivu
METAR-TAF:

METAR-TAF

Lentoasemat :

Arnhem, Alankomaat

Leveyspiiri: 52-04N, Pituuspiiri: 005-53E, korkeus merenpinnasta: 48 m

Tämänhetkinen sää

Tämä raportti tehtiin 17 minuuttia sitten, kello 11.25 UTC
Tuuli 5 kn koillisesta, vaihdellen pohjoisen ja idän välillä
Lämpötila 17°C
Kosteus 88%
Ilmanpaine 1013 hPa
Näkyvyys 10 km tai enemmän
Muutamia pilviä 1500 ft:n korkeudessa, Cumulonimbus.
Pilvistä 4000 ft:n korkeudessa
tihkusadetta,

METAR: EHDL 181125Z AUTO 04005KT 360V090 9999 DZ FEW015CB OVC040 17/15 Q1013 BLU

Aika: 13:42 (11:42 UTC)


TAF: puuttuu

Säähavainnot ja -ennusteet yli 4000 lentoasemalta (METAR- ja TAF-raportit).

Käytössä olevat sääasemat on merkitty karttaan keltaisilla ja punaisilla pisteillä.

Aseta hiiri pisteen päälle nähdäksesi sääaseman nimen.

Klikkaa sitten nähdäksesi säähavainnot ja -ennusteet.

Kartan vaihtaminen: klikkaa mustalla rastilla varustettuja vihreitä pisteitä, niin voit zoomata sisään; viivalla varustettua vihreää pistettä, niin voit zoomata ulos tai vihreitä nuolia, niin pääset viereisille kartoille.


METAR-TAF: